»·PEaware :: N8256X L52-KSDM

N8256X :: L52-KSDM

FLIGHT INFORMATION

Flight Status: Arrived
Operator: Privately registered:
United States
More flights under this callsign
Pilot: Brian M. (26125)
Aircraft: PIPER PA-28 CHEROKEE ARCHER
(P28A)
More flights by this aircraft type
Origin: L52 Oceano Co
United States
Destination: KSDM Brown Mun
United States
More flights between these airports :: More routes between these airports
Route: +
File this flight plan on PilotEdge
Remarks:
Altitude:
(Current/Filed)
0ft
Speed:
(Current/Filed)
0kts
Departed: 25-Sep-19 03:27 PM
Arrived: 25-Sep-19 05:57 PM
Distance/Time
Traveled:
236nm/2:30
Distance/Time
To Go:
Arrived

Flight Plot

Page will automatically refresh every two minutes.

Flight plan parsing failed; only flown route is shown


Map Options




Map Legend


Flown Route
Filed Route
Departure Airport
Arrival Airport
Navaid (VOR, NDB)
Fix

Horizontal Profiles

Position Reports

Time Latitude Longitude Heading Altitude Ground
Speed
25-Sep-19 15:25 34.974557 -120.558329 186 3689ft 96kts
25-Sep-19 15:26 34.949990 -120.548418 166 4114ft 99kts
25-Sep-19 15:27 34.931704 -120.525512 119 4579ft 97kts
25-Sep-19 15:28 34.918805 -120.496556 115 5000ft 97kts
25-Sep-19 15:29 34.906828 -120.466900 132 5390ft 98kts
25-Sep-19 15:30 34.885764 -120.445593 135 5742ft 98kts
25-Sep-19 15:31 34.865390 -120.423076 137 6047ft 99kts
25-Sep-19 15:32 34.844195 -120.401579 140 6356ft 99kts
25-Sep-19 15:33 34.822944 -120.380014 139 6671ft 99kts
25-Sep-19 15:34 34.801353 -120.358569 143 6969ft 100kts
25-Sep-19 15:35 34.779116 -120.337830 140 7248ft 100kts
25-Sep-19 15:36 34.757781 -120.315791 141 7510ft 101kts
25-Sep-19 15:37 34.736054 -120.293978 140 7757ft 101kts
25-Sep-19 15:38 34.713236 -120.269000 131 7630ft 111kts
25-Sep-19 15:39 34.690977 -120.244050 138 7566ft 106kts
25-Sep-19 15:40 34.668806 -120.221403 142 7595ft 103kts
25-Sep-19 15:41 34.644882 -120.201923 144 7605ft 103kts
25-Sep-19 15:42 34.622718 -120.179631 134 7617ft 103kts
25-Sep-19 15:43 34.602487 -120.154783 143 7626ft 103kts
25-Sep-19 15:44 34.577524 -120.137362 151 7639ft 103kts
25-Sep-19 15:45 34.554956 -120.115746 141 7652ft 103kts
25-Sep-19 15:46 34.532914 -120.093453 122 7658ft 104kts
25-Sep-19 15:47 34.518707 -120.063121 123 7674ft 103kts
25-Sep-19 15:48 34.498118 -120.039055 135 7651ft 104kts
25-Sep-19 15:49 34.497067 -120.005473 78 7615ft 103kts
25-Sep-19 15:50 34.499525 -119.970732 91 7601ft 103kts
25-Sep-19 15:51 34.500009 -119.935833 93 7593ft 103kts
25-Sep-19 15:52 34.495207 -119.901416 96 7585ft 103kts
25-Sep-19 15:53 34.492802 -119.866656 90 7579ft 103kts
25-Sep-19 15:54 34.492548 -119.831802 88 7574ft 103kts
25-Sep-19 15:55 34.493029 -119.796976 88 7571ft 103kts
25-Sep-19 15:56 34.492928 -119.762156 92 7567ft 103kts
25-Sep-19 15:57 34.489408 -119.727526 92 7566ft 103kts
25-Sep-19 15:58 34.486394 -119.692938 98 7565ft 102kts
25-Sep-19 15:59 34.480321 -119.658949 102 7562ft 103kts
25-Sep-19 16:00 34.475099 -119.624839 100 7562ft 103kts
25-Sep-19 16:01 34.470449 -119.590516 94 7565ft 103kts
25-Sep-19 16:02 34.467338 -119.555998 100 7566ft 103kts
25-Sep-19 16:03 34.462800 -119.521763 99 7567ft 103kts
25-Sep-19 16:04 34.457425 -119.487550 96 7568ft 103kts
25-Sep-19 16:05 34.452715 -119.453311 98 7569ft 103kts
25-Sep-19 16:06 34.446542 -119.419393 103 7572ft 103kts
25-Sep-19 16:07 34.441851 -119.385276 95 7575ft 103kts
25-Sep-19 16:08 34.437101 -119.351037 102 7575ft 103kts
25-Sep-19 16:09 34.430416 -119.318474 106 7577ft 102kts
25-Sep-19 16:10 34.424182 -119.283869 101 7403ft 108kts
25-Sep-19 16:11 34.418597 -119.248162 103 7025ft 107kts
25-Sep-19 16:12 34.411431 -119.213090 104 6673ft 106kts
25-Sep-19 16:13 34.404538 -119.178091 96 6342ft 106kts
25-Sep-19 16:15 34.400803 -119.142888 109 6037ft 105kts
25-Sep-19 16:16 34.391567 -119.109315 102 5754ft 105kts
25-Sep-19 16:17 34.384344 -119.075551 109 5603ft 101kts
25-Sep-19 16:18 34.373889 -119.043797 108 5585ft 101kts
25-Sep-19 16:19 34.363155 -119.012400 114 5567ft 101kts
25-Sep-19 16:20 34.352370 -118.980985 105 5549ft 101kts
25-Sep-19 16:21 34.344008 -118.948498 106 5565ft 101kts
25-Sep-19 16:22 34.334912 -118.916257 110 5580ft 101kts
25-Sep-19 16:23 34.326089 -118.883905 108 5596ft 101kts
25-Sep-19 16:24 34.317702 -118.851421 109 5610ft 101kts
25-Sep-19 16:25 34.308061 -118.819409 101 5624ft 101kts
25-Sep-19 16:26 34.302561 -118.786057 101 5640ft 101kts
25-Sep-19 16:27 34.296559 -118.752786 100 5625ft 101kts
25-Sep-19 16:28 34.291950 -118.719251 100 5612ft 101kts
25-Sep-19 16:29 34.285395 -118.686224 103 5601ft 101kts
25-Sep-19 16:30 34.276607 -118.654120 118 5591ft 100kts
25-Sep-19 16:31 34.264997 -118.623233 104 5581ft 100kts
25-Sep-19 16:32 34.255063 -118.592449 150 5549ft 102kts
25-Sep-19 16:33 34.228716 -118.580906 154 5593ft 100kts
25-Sep-19 16:34 34.202807 -118.567613 155 5624ft 100kts
25-Sep-19 16:34 34.181782 -118.555297 151 5649ft 100kts
25-Sep-19 16:36 34.154451 -118.533768 148 5673ft 100kts
25-Sep-19 16:37 34.128211 -118.521923 164 5666ft 100kts
25-Sep-19 16:37 34.105256 -118.516905 162 5654ft 100kts
25-Sep-19 16:38 34.078797 -118.505776 158 5649ft 100kts
25-Sep-19 16:40 34.048376 -118.491571 158 5643ft 100kts
25-Sep-19 16:40 34.026516 -118.481768 160 5640ft 100kts
25-Sep-19 16:41 33.999960 -118.471176 161 5637ft 100kts
25-Sep-19 16:42 33.973397 -118.460230 161 5635ft 100kts
25-Sep-19 16:43 33.946456 -118.451216 165 5635ft 100kts
25-Sep-19 16:44 33.920717 -118.439174 140 5632ft 100kts
25-Sep-19 16:45 33.899599 -118.417655 139 5632ft 100kts
25-Sep-19 16:46 33.878015 -118.396192 145 5633ft 100kts
25-Sep-19 16:47 33.856646 -118.374869 134 5629ft 100kts
25-Sep-19 16:48 33.835476 -118.352928 138 5633ft 100kts
25-Sep-19 16:49 33.815987 -118.329785 130 5638ft 100kts
25-Sep-19 16:50 33.797182 -118.304879 128 5642ft 100kts
25-Sep-19 16:51 33.779818 -118.278551 130 5648ft 100kts
25-Sep-19 16:52 33.762746 -118.252072 122 5652ft 100kts
25-Sep-19 16:53 33.743475 -118.228232 129 5643ft 101kts
25-Sep-19 16:54 33.726110 -118.202078 132 5653ft 100kts
25-Sep-19 16:55 33.706917 -118.177663 130 5660ft 100kts
25-Sep-19 16:56 33.685504 -118.156703 149 5663ft 100kts
25-Sep-19 16:57 33.662854 -118.137160 142 5671ft 100kts
25-Sep-19 16:58 33.640921 -118.116697 150 5677ft 100kts
25-Sep-19 16:59 33.624462 -118.090762 113 5680ft 100kts
25-Sep-19 17:00 33.607478 -118.064374 140 5684ft 100kts
25-Sep-19 17:01 33.581802 -118.053665 183 5678ft 100kts
25-Sep-19 17:02 33.560172 -118.036025 122 5682ft 99kts
25-Sep-19 17:03 33.543209 -118.009565 129 5676ft 100kts
25-Sep-19 17:04 33.526551 -117.982777 127 5664ft 100kts
25-Sep-19 17:05 33.508992 -117.957016 133 5652ft 100kts
25-Sep-19 17:06 33.485865 -117.938461 145 5646ft 99kts
25-Sep-19 17:07 33.464376 -117.917554 132 5638ft 100kts
25-Sep-19 17:08 33.441619 -117.898686 147 5631ft 100kts
25-Sep-19 17:09 33.419327 -117.878923 147 5627ft 100kts
25-Sep-19 17:10 33.396763 -117.859742 139 5623ft 100kts
25-Sep-19 17:11 33.372552 -117.843399 144 5620ft 99kts
25-Sep-19 17:12 33.353893 -117.819202 153 5586ft 101kts
25-Sep-19 17:13 33.329184 -117.804292 146 5600ft 100kts
25-Sep-19 17:14 33.306105 -117.786041 149 5605ft 99kts
25-Sep-19 17:15 33.285852 -117.763792 129 5607ft 99kts
25-Sep-19 17:16 33.265419 -117.741002 133 5447ft 104kts
25-Sep-19 17:17 33.240769 -117.723740 142 5274ft 103kts
25-Sep-19 17:18 33.218054 -117.700532 140 4844ft 108kts
25-Sep-19 17:19 33.196659 -117.675962 150 4432ft 106kts
25-Sep-19 17:20 33.173647 -117.653558 140 4055ft 107kts
25-Sep-19 17:21 33.152031 -117.629598 131 3713ft 106kts
25-Sep-19 17:22 33.133630 -117.602151 126 3390ft 106kts
25-Sep-19 17:23 33.117168 -117.576013 120 3503ft 100kts
25-Sep-19 17:24 33.095627 -117.556303 144 3582ft 100kts
25-Sep-19 17:25 33.075187 -117.534649 118 3594ft 100kts
25-Sep-19 17:26 33.058727 -117.508956 144 3600ft 99kts
25-Sep-19 17:27 33.034891 -117.492350 166 3586ft 102kts
25-Sep-19 17:28 33.019088 -117.469698 69 3556ft 103kts
25-Sep-19 17:29 33.021284 -117.436994 83 3575ft 99kts
25-Sep-19 17:30 33.018143 -117.404653 107 3572ft 101kts
25-Sep-19 17:31 33.013498 -117.372139 114 3558ft 103kts
25-Sep-19 17:32 32.998091 -117.344650 125 3604ft 100kts
25-Sep-19 17:33 32.980616 -117.319588 149 3624ft 98kts
25-Sep-19 17:34 32.955998 -117.305069 159 3635ft 99kts
25-Sep-19 17:35 32.930690 -117.291851 166 3637ft 100kts
25-Sep-19 17:36 32.904658 -117.281302 151 3645ft 99kts
25-Sep-19 17:37 32.878558 -117.270341 156 3632ft 99kts
25-Sep-19 17:38 32.854165 -117.254935 151 3631ft 99kts
25-Sep-19 17:39 32.830702 -117.237785 150 3631ft 99kts
25-Sep-19 17:40 32.806500 -117.222310 153 3632ft 99kts
25-Sep-19 17:41 32.782377 -117.206377 153 3634ft 99kts
25-Sep-19 17:42 32.756949 -117.194098 164 3635ft 99kts
25-Sep-19 17:43 32.730307 -117.185611 165 3639ft 99kts
25-Sep-19 17:44 32.704702 -117.173804 160 3640ft 99kts
25-Sep-19 17:45 32.680564 -117.158435 147 3645ft 99kts
25-Sep-19 17:46 32.656820 -117.142019 146 3651ft 99kts
25-Sep-19 17:47 32.635041 -117.122077 138 3657ft 99kts
25-Sep-19 17:48 32.616245 -117.098391 125 3661ft 99kts
25-Sep-19 17:49 32.597395 -117.074661 128 3666ft 98kts
25-Sep-19 17:50 32.585717 -117.046103 92 3328ft 101kts
25-Sep-19 17:51 32.583582 -117.012675 94 2409ft 101kts
25-Sep-19 17:52 32.581344 -116.979924 91 1465ft 91kts
25-Sep-19 17:53 32.581020 -116.950120 91 981ft 81kts
25-Sep-19 17:54 32.571063 -116.959767 269 757ft 77kts
25-Sep-19 17:55 32.572601 -116.980602 277 514ft 47kts
25-Sep-19 17:56 32.572207 -116.984128 183 514ft 0kts
25-Sep-19 17:57 32.570190 -116.986071 199 514ft 10kts

Navigation Log

Ident Type
Flight plan parsing failed, navigation log unavailable